sensor_id;sensor_type;location;lat;lon;timestamp;pressure;altitude;pressure_sealevel;temperature;humidity
56912;BME280;42800;53.928;27.662;2022-12-29T00:01:56;99087.88;;;0.89;100.00
56912;BME280;42800;53.928;27.662;2022-12-29T00:04:22;99088.84;;;1.07;100.00
56912;BME280;42800;53.928;27.662;2022-12-29T00:06:51;99094.94;;;0.99;100.00
56912;BME280;42800;53.928;27.662;2022-12-29T00:09:18;99094.53;;;1.05;100.00
56912;BME280;42800;53.928;27.662;2022-12-29T00:11:44;99106.06;;;0.83;100.00
56912;BME280;42800;53.928;27.662;2022-12-29T00:14:12;99093.47;;;0.79;100.00
56912;BME280;42800;53.928;27.662;2022-12-29T00:16:56;99080.91;;;0.74;100.00
56912;BME280;42800;53.928;27.662;2022-12-29T00:19:23;99087.56;;;0.77;100.00
56912;BME280;42800;53.928;27.662;2022-12-29T00:22:08;99090.88;;;0.87;100.00
56912;BME280;42800;53.928;27.662;2022-12-29T00:24:53;99089.34;;;0.95;100.00
56912;BME280;42800;53.928;27.662;2022-12-29T00:27:37;99090.69;;;0.70;100.00
56912;BME280;42800;53.928;27.662;2022-12-29T00:30:23;99059.97;;;0.93;100.00
56912;BME280;42800;53.928;27.662;2022-12-29T00:33:09;99068.81;;;0.72;100.00
56912;BME280;42800;53.928;27.662;2022-12-29T00:35:57;99064.75;;;0.97;100.00
56912;BME280;42800;53.928;27.662;2022-12-29T00:38:25;99066.63;;;0.74;100.00
56912;BME280;42800;53.928;27.662;2022-12-29T00:41:11;99057.22;;;0.71;100.00
56912;BME280;42800;53.928;27.662;2022-12-29T00:43:58;99042.47;;;0.91;100.00
56912;BME280;42800;53.928;27.662;2022-12-29T00:46:37;99045.53;;;0.62;100.00
56912;BME280;42800;53.928;27.662;2022-12-29T00:49:04;99034.75;;;0.48;100.00
56912;BME280;42800;53.928;27.662;2022-12-29T00:51:49;99013.06;;;0.67;100.00
56912;BME280;42800;53.928;27.662;2022-12-29T00:54:15;99012.88;;;0.63;100.00
56912;BME280;42800;53.928;27.662;2022-12-29T00:56:42;99001.84;;;0.60;100.00
56912;BME280;42800;53.928;27.662;2022-12-29T00:59:10;98990.78;;;0.61;100.00
56912;BME280;42800;53.928;27.662;2022-12-29T01:01:37;98984.22;;;0.76;100.00
56912;BME280;42800;53.928;27.662;2022-12-29T01:04:04;98993.53;;;0.84;100.00
56912;BME280;42800;53.928;27.662;2022-12-29T01:06:31;98979.44;;;0.87;100.00
56912;BME280;42800;53.928;27.662;2022-12-29T01:08:57;98981.75;;;0.66;100.00
56912;BME280;42800;53.928;27.662;2022-12-29T01:11:42;98973.09;;;0.55;100.00
56912;BME280;42800;53.928;27.662;2022-12-29T01:14:08;98964.50;;;0.67;100.00
56912;BME280;42800;53.928;27.662;2022-12-29T01:16:34;98969.78;;;0.94;100.00
56912;BME280;42800;53.928;27.662;2022-12-29T01:19:02;98972.88;;;0.65;100.00
56912;BME280;42800;53.928;27.662;2022-12-29T01:21:29;98967.00;;;0.63;100.00
56912;BME280;42800;53.928;27.662;2022-12-29T01:23:55;98966.13;;;0.77;100.00
56912;BME280;42800;53.928;27.662;2022-12-29T01:26:21;98960.47;;;1.01;100.00
56912;BME280;42800;53.928;27.662;2022-12-29T01:28:48;98969.47;;;0.74;100.00
56912;BME280;42800;53.928;27.662;2022-12-29T01:31:14;98963.88;;;0.70;100.00
56912;BME280;42800;53.928;27.662;2022-12-29T01:33:41;98969.75;;;0.72;100.00
56912;BME280;42800;53.928;27.662;2022-12-29T01:36:10;98959.00;;;0.94;100.00
56912;BME280;42800;53.928;27.662;2022-12-29T01:38:37;98961.56;;;0.77;100.00
56912;BME280;42800;53.928;27.662;2022-12-29T01:41:05;98961.84;;;0.76;100.00
56912;BME280;42800;53.928;27.662;2022-12-29T01:43:40;98969.91;;;1.12;100.00
56912;BME280;42800;53.928;27.662;2022-12-29T01:46:13;98985.25;;;0.80;100.00
56912;BME280;42800;53.928;27.662;2022-12-29T01:48:42;98973.19;;;1.00;100.00
56912;BME280;42800;53.928;27.662;2022-12-29T01:51:10;98988.56;;;0.77;100.00
56912;BME280;42800;53.928;27.662;2022-12-29T01:53:36;98979.84;;;0.80;100.00
56912;BME280;42800;53.928;27.662;2022-12-29T01:56:05;98974.88;;;1.18;100.00
56912;BME280;42800;53.928;27.662;2022-12-29T01:58:37;98973.13;;;1.14;100.00
56912;BME280;42800;53.928;27.662;2022-12-29T02:01:06;98997.13;;;0.79;100.00
56912;BME280;42800;53.928;27.662;2022-12-29T02:03:33;98992.03;;;0.78;100.00
56912;BME280;42800;53.928;27.662;2022-12-29T02:06:03;98988.50;;;0.91;100.00
56912;BME280;42800;53.928;27.662;2022-12-29T02:08:35;98974.09;;;0.96;100.00
56912;BME280;42800;53.928;27.662;2022-12-29T02:11:02;98981.56;;;0.99;100.00
56912;BME280;42800;53.928;27.662;2022-12-29T02:13:29;98991.88;;;0.97;100.00
56912;BME280;42800;53.928;27.662;2022-12-29T02:16:01;98993.47;;;0.98;100.00
56912;BME280;42800;53.928;27.662;2022-12-29T02:18:37;98989.91;;;0.88;100.00
56912;BME280;42800;53.928;27.662;2022-12-29T02:27:36;98972.50;;;1.17;100.00
56912;BME280;42800;53.928;27.662;2022-12-29T02:30:11;98990.66;;;1.03;100.00
56912;BME280;42800;53.928;27.662;2022-12-29T02:32:49;98997.91;;;0.80;100.00
56912;BME280;42800;53.928;27.662;2022-12-29T02:35:25;98984.97;;;1.04;100.00
56912;BME280;42800;53.928;27.662;2022-12-29T02:38:00;98981.56;;;0.99;100.00
56912;BME280;42800;53.928;27.662;2022-12-29T02:40:37;98984.56;;;1.20;100.00
56912;BME280;42800;53.928;27.662;2022-12-29T02:43:14;98988.13;;;1.06;100.00
56912;BME280;42800;53.928;27.662;2022-12-29T02:45:49;98986.22;;;1.29;100.00
56912;BME280;42800;53.928;27.662;2022-12-29T02:48:21;98994.66;;;1.05;100.00
56912;BME280;42800;53.928;27.662;2022-12-29T02:50:54;98997.91;;;0.93;100.00
56912;BME280;42800;53.928;27.662;2022-12-29T02:53:23;98975.13;;;1.31;100.00
56912;BME280;42800;53.928;27.662;2022-12-29T02:56:05;98976.78;;;0.96;100.00
56912;BME280;42800;53.928;27.662;2022-12-29T02:58:31;98965.91;;;1.09;100.00
56912;BME280;42800;53.928;27.662;2022-12-29T03:01:06;98968.44;;;1.06;100.00
56912;BME280;42800;53.928;27.662;2022-12-29T03:03:48;98960.31;;;0.83;100.00
56912;BME280;42800;53.928;27.662;2022-12-29T03:06:30;98949.53;;;1.06;100.00
56912;BME280;42800;53.928;27.662;2022-12-29T03:09:05;98953.47;;;1.00;100.00
56912;BME280;42800;53.928;27.662;2022-12-29T03:11:45;98946.28;;;0.95;100.00
56912;BME280;42800;53.928;27.662;2022-12-29T03:14:34;98942.75;;;1.08;100.00
56912;BME280;42800;53.928;27.662;2022-12-29T03:17:26;98952.38;;;1.01;100.00
56912;BME280;42800;53.928;27.662;2022-12-29T03:19:59;98941.00;;;1.12;100.00
56912;BME280;42800;53.928;27.662;2022-12-29T03:22:30;98952.63;;;0.90;100.00
56912;BME280;42800;53.928;27.662;2022-12-29T03:25:00;98943.25;;;1.10;100.00
56912;BME280;42800;53.928;27.662;2022-12-29T03:27:30;98950.22;;;1.11;100.00
56912;BME280;42800;53.928;27.662;2022-12-29T03:30:00;98948.34;;;1.43;100.00
56912;BME280;42800;53.928;27.662;2022-12-29T03:32:31;98959.78;;;1.40;100.00
56912;BME280;42800;53.928;27.662;2022-12-29T03:34:59;98981.25;;;1.23;100.00
56912;BME280;42800;53.928;27.662;2022-12-29T03:37:29;98974.97;;;1.27;100.00
56912;BME280;42800;53.928;27.662;2022-12-29T03:39:57;98977.03;;;1.30;100.00
56912;BME280;42800;53.928;27.662;2022-12-29T03:42:26;98978.16;;;1.07;100.00
56912;BME280;42800;53.928;27.662;2022-12-29T03:44:55;98965.84;;;1.23;100.00
56912;BME280;42800;53.928;27.662;2022-12-29T03:47:23;98966.84;;;1.27;100.00
56912;BME280;42800;53.928;27.662;2022-12-29T03:49:50;98965.84;;;1.23;100.00
56912;BME280;42800;53.928;27.662;2022-12-29T03:52:17;98958.16;;;1.39;100.00
56912;BME280;42800;53.928;27.662;2022-12-29T03:54:44;98961.28;;;1.24;100.00
56912;BME280;42800;53.928;27.662;2022-12-29T03:57:11;98948.56;;;1.55;100.00
56912;BME280;42800;53.928;27.662;2022-12-29T03:59:37;98953.94;;;1.47;100.00
56912;BME280;42800;53.928;27.662;2022-12-29T04:02:03;98973.91;;;1.37;100.00
56912;BME280;42800;53.928;27.662;2022-12-29T04:04:29;98976.66;;;1.23;100.00
56912;BME280;42800;53.928;27.662;2022-12-29T04:06:55;98975.94;;;1.09;100.00
56912;BME280;42800;53.928;27.662;2022-12-29T04:09:22;98956.31;;;1.17;100.00
56912;BME280;42800;53.928;27.662;2022-12-29T04:11:48;98955.88;;;1.01;100.00
56912;BME280;42800;53.928;27.662;2022-12-29T04:14:15;98940.75;;;1.23;100.00
56912;BME280;42800;53.928;27.662;2022-12-29T04:16:41;98943.25;;;1.41;100.00
56912;BME280;42800;53.928;27.662;2022-12-29T04:19:07;98958.63;;;1.10;100.00
56912;BME280;42800;53.928;27.662;2022-12-29T04:21:34;98951.53;;;1.45;100.00
56912;BME280;42800;53.928;27.662;2022-12-29T04:24:00;98951.00;;;1.34;100.00
56912;BME280;42800;53.928;27.662;2022-12-29T04:26:27;98955.19;;;1.18;100.00
56912;BME280;42800;53.928;27.662;2022-12-29T04:28:54;98949.78;;;1.18;100.00
56912;BME280;42800;53.928;27.662;2022-12-29T04:31:20;98948.41;;;1.29;100.00
56912;BME280;42800;53.928;27.662;2022-12-29T04:33:46;98946.22;;;1.31;100.00
56912;BME280;42800;53.928;27.662;2022-12-29T04:36:12;98947.03;;;1.09;100.00
56912;BME280;42800;53.928;27.662;2022-12-29T04:38:38;98934.97;;;1.38;100.00
56912;BME280;42800;53.928;27.662;2022-12-29T04:41:05;98938.22;;;1.26;100.00
56912;BME280;42800;53.928;27.662;2022-12-29T04:43:32;98938.84;;;1.23;100.00
56912;BME280;42800;53.928;27.662;2022-12-29T04:45:58;98930.28;;;1.21;100.00
56912;BME280;42800;53.928;27.662;2022-12-29T04:48:24;98927.34;;;1.09;100.00
56912;BME280;42800;53.928;27.662;2022-12-29T04:50:50;98917.56;;;1.53;100.00
56912;BME280;42800;53.928;27.662;2022-12-29T04:53:17;98919.97;;;1.54;100.00
56912;BME280;42800;53.928;27.662;2022-12-29T04:55:43;98932.47;;;1.41;100.00
56912;BME280;42800;53.928;27.662;2022-12-29T04:58:10;98940.44;;;1.47;100.00
56912;BME280;42800;53.928;27.662;2022-12-29T05:00:37;98946.75;;;1.42;100.00
56912;BME280;42800;53.928;27.662;2022-12-29T05:03:03;98938.63;;;1.33;100.00
56912;BME280;42800;53.928;27.662;2022-12-29T05:05:29;98939.88;;;1.36;100.00
56912;BME280;42800;53.928;27.662;2022-12-29T05:07:55;98933.22;;;1.33;100.00
56912;BME280;42800;53.928;27.662;2022-12-29T05:10:22;98927.28;;;1.54;100.00
56912;BME280;42800;53.928;27.662;2022-12-29T05:12:48;98933.47;;;1.54;100.00
56912;BME280;42800;53.928;27.662;2022-12-29T05:15:14;98933.13;;;1.47;100.00
56912;BME280;42800;53.928;27.662;2022-12-29T05:17:41;98929.53;;;1.60;100.00
56912;BME280;42800;53.928;27.662;2022-12-29T05:20:08;98952.28;;;1.68;100.00
56912;BME280;42800;53.928;27.662;2022-12-29T05:22:35;98955.78;;;1.69;100.00
56912;BME280;42800;53.928;27.662;2022-12-29T05:25:02;98967.84;;;1.62;100.00
56912;BME280;42800;53.928;27.662;2022-12-29T05:27:28;98978.03;;;1.65;100.00
56912;BME280;42800;53.928;27.662;2022-12-29T05:29:55;98996.16;;;1.42;100.00
56912;BME280;42800;53.928;27.662;2022-12-29T05:32:21;98989.25;;;1.50;100.00
56912;BME280;42800;53.928;27.662;2022-12-29T05:34:48;98990.91;;;1.69;100.00
56912;BME280;42800;53.928;27.662;2022-12-29T05:37:15;98995.56;;;1.46;100.00
56912;BME280;42800;53.928;27.662;2022-12-29T05:39:41;98992.06;;;1.76;100.00
56912;BME280;42800;53.928;27.662;2022-12-29T05:42:07;98991.41;;;1.71;100.00
56912;BME280;42800;53.928;27.662;2022-12-29T05:44:33;98985.06;;;1.75;100.00
56912;BME280;42800;53.928;27.662;2022-12-29T05:47:00;98986.41;;;1.55;100.00
56912;BME280;42800;53.928;27.662;2022-12-29T05:49:26;98987.19;;;1.56;100.00
56912;BME280;42800;53.928;27.662;2022-12-29T05:51:53;98982.53;;;1.70;100.00
56912;BME280;42800;53.928;27.662;2022-12-29T05:54:19;98988.97;;;1.60;100.00
56912;BME280;42800;53.928;27.662;2022-12-29T05:56:45;98976.47;;;1.73;100.00
56912;BME280;42800;53.928;27.662;2022-12-29T05:59:11;98981.25;;;1.45;100.00
56912;BME280;42800;53.928;27.662;2022-12-29T06:01:38;98990.34;;;1.49;100.00
56912;BME280;42800;53.928;27.662;2022-12-29T06:04:04;98988.13;;;1.51;100.00
56912;BME280;42800;53.928;27.662;2022-12-29T06:06:30;98985.19;;;1.39;100.00
56912;BME280;42800;53.928;27.662;2022-12-29T06:08:57;98969.41;;;1.95;100.00
56912;BME280;42800;53.928;27.662;2022-12-29T06:11:23;98994.94;;;1.80;100.00
56912;BME280;42800;53.928;27.662;2022-12-29T06:13:49;99006.31;;;1.91;100.00
56912;BME280;42800;53.928;27.662;2022-12-29T06:16:16;99023.44;;;1.55;100.00
56912;BME280;42800;53.928;27.662;2022-12-29T06:18:42;99000.94;;;1.68;100.00
56912;BME280;42800;53.928;27.662;2022-12-29T06:21:08;99015.06;;;1.42;100.00
56912;BME280;42800;53.928;27.662;2022-12-29T06:23:34;99001.94;;;1.50;100.00
56912;BME280;42800;53.928;27.662;2022-12-29T06:26:01;99007.06;;;1.60;100.00
56912;BME280;42800;53.928;27.662;2022-12-29T06:28:27;99007.38;;;1.27;100.00
56912;BME280;42800;53.928;27.662;2022-12-29T06:30:54;98990.88;;;1.60;100.00
56912;BME280;42800;53.928;27.662;2022-12-29T06:33:20;98984.47;;;1.78;100.00
56912;BME280;42800;53.928;27.662;2022-12-29T06:35:46;98994.13;;;1.71;100.00
56912;BME280;42800;53.928;27.662;2022-12-29T06:38:12;98995.19;;;1.61;100.00
56912;BME280;42800;53.928;27.662;2022-12-29T06:40:39;99001.19;;;1.58;100.00
56912;BME280;42800;53.928;27.662;2022-12-29T06:43:07;98995.53;;;1.68;100.00
56912;BME280;42800;53.928;27.662;2022-12-29T06:45:33;99002.75;;;1.81;100.00
56912;BME280;42800;53.928;27.662;2022-12-29T06:47:59;99012.09;;;1.75;100.00
56912;BME280;42800;53.928;27.662;2022-12-29T06:50:26;99024.81;;;1.75;100.00
56912;BME280;42800;53.928;27.662;2022-12-29T06:52:52;99016.44;;;1.54;100.00
56912;BME280;42800;53.928;27.662;2022-12-29T06:55:18;99016.13;;;1.86;100.00
56912;BME280;42800;53.928;27.662;2022-12-29T06:57:44;99021.47;;;2.09;100.00
56912;BME280;42800;53.928;27.662;2022-12-29T07:00:12;99041.75;;;2.20;100.00
56912;BME280;42800;53.928;27.662;2022-12-29T07:02:39;99069.94;;;1.97;100.00
56912;BME280;42800;53.928;27.662;2022-12-29T07:05:05;99082.00;;;1.91;100.00
56912;BME280;42800;53.928;27.662;2022-12-29T07:07:33;99074.44;;;1.56;100.00
56912;BME280;42800;53.928;27.662;2022-12-29T07:09:59;99049.50;;;1.59;100.00
56912;BME280;42800;53.928;27.662;2022-12-29T07:12:25;99033.53;;;2.03;100.00
56912;BME280;42800;53.928;27.662;2022-12-29T07:14:51;99046.75;;;2.04;100.00
56912;BME280;42800;53.928;27.662;2022-12-29T07:17:18;99053.13;;;2.08;100.00
56912;BME280;42800;53.928;27.662;2022-12-29T07:19:44;99077.75;;;1.98;100.00
56912;BME280;42800;53.928;27.662;2022-12-29T07:22:11;99080.59;;;2.24;100.00
56912;BME280;42800;53.928;27.662;2022-12-29T07:24:37;99087.66;;;1.58;100.00
56912;BME280;42800;53.928;27.662;2022-12-29T07:27:04;99066.03;;;1.80;100.00
56912;BME280;42800;53.928;27.662;2022-12-29T07:29:30;99061.38;;;1.50;100.00
56912;BME280;42800;53.928;27.662;2022-12-29T07:31:57;99027.28;;;1.62;100.00
56912;BME280;42800;53.928;27.662;2022-12-29T07:34:23;99022.81;;;1.89;100.00
56912;BME280;42800;53.928;27.662;2022-12-29T07:36:50;99027.97;;;1.46;100.00
56912;BME280;42800;53.928;27.662;2022-12-29T07:39:16;99016.09;;;1.47;100.00
56912;BME280;42800;53.928;27.662;2022-12-29T07:41:42;98996.56;;;1.81;100.00
56912;BME280;42800;53.928;27.662;2022-12-29T07:44:08;99003.09;;;1.57;100.00
56912;BME280;42800;53.928;27.662;2022-12-29T07:46:35;98990.97;;;1.77;100.00
56912;BME280;42800;53.928;27.662;2022-12-29T07:49:01;98992.78;;;1.59;100.00
56912;BME280;42800;53.928;27.662;2022-12-29T07:51:28;98993.22;;;1.53;100.00
56912;BME280;42800;53.928;27.662;2022-12-29T07:53:54;98977.44;;;1.46;100.00
56912;BME280;42800;53.928;27.662;2022-12-29T07:56:20;98969.91;;;1.57;100.00
56912;BME280;42800;53.928;27.662;2022-12-29T07:58:46;98958.66;;;1.72;100.00
56912;BME280;42800;53.928;27.662;2022-12-29T08:01:12;98963.03;;;1.51;100.00
56912;BME280;42800;53.928;27.662;2022-12-29T08:03:39;98965.09;;;1.54;100.00
56912;BME280;42800;53.928;27.662;2022-12-29T08:06:09;98956.84;;;1.59;100.00
56912;BME280;42800;53.928;27.662;2022-12-29T08:08:36;98955.34;;;1.44;100.00
56912;BME280;42800;53.928;27.662;2022-12-29T08:11:02;98948.91;;;1.54;100.00
56912;BME280;42800;53.928;27.662;2022-12-29T08:13:28;98958.66;;;1.63;100.00
56912;BME280;42800;53.928;27.662;2022-12-29T08:15:55;98941.97;;;1.70;100.00
56912;BME280;42800;53.928;27.662;2022-12-29T08:18:23;98938.00;;;1.68;100.00
56912;BME280;42800;53.928;27.662;2022-12-29T08:20:49;98940.78;;;1.54;100.00
56912;BME280;42800;53.928;27.662;2022-12-29T08:23:15;98929.66;;;1.55;100.00
56912;BME280;42800;53.928;27.662;2022-12-29T08:25:42;98928.94;;;1.72;100.00
56912;BME280;42800;53.928;27.662;2022-12-29T08:28:08;98931.25;;;1.56;100.00
56912;BME280;42800;53.928;27.662;2022-12-29T08:30:36;98915.13;;;1.42;100.00
56912;BME280;42800;53.928;27.662;2022-12-29T08:33:02;98910.25;;;1.53;100.00
56912;BME280;42800;53.928;27.662;2022-12-29T08:35:28;98900.72;;;1.56;100.00
56912;BME280;42800;53.928;27.662;2022-12-29T08:37:54;98908.81;;;1.47;100.00
56912;BME280;42800;53.928;27.662;2022-12-29T08:40:21;98897.50;;;1.45;100.00
56912;BME280;42800;53.928;27.662;2022-12-29T08:42:48;98884.41;;;1.70;100.00
56912;BME280;42800;53.928;27.662;2022-12-29T08:45:14;98885.63;;;1.55;100.00
56912;BME280;42800;53.928;27.662;2022-12-29T08:47:40;98888.84;;;1.57;100.00
56912;BME280;42800;53.928;27.662;2022-12-29T08:50:07;98879.38;;;1.77;100.00
56912;BME280;42800;53.928;27.662;2022-12-29T08:52:33;98882.31;;;1.58;100.00
56912;BME280;42800;53.928;27.662;2022-12-29T08:54:59;98894.44;;;1.69;100.00
56912;BME280;42800;53.928;27.662;2022-12-29T08:57:25;98889.44;;;2.02;100.00
56912;BME280;42800;53.928;27.662;2022-12-29T08:59:52;98918.56;;;1.65;100.00
56912;BME280;42800;53.928;27.662;2022-12-29T09:02:19;98917.13;;;1.59;100.00
56912;BME280;42800;53.928;27.662;2022-12-29T09:04:45;98915.47;;;1.89;100.00
56912;BME280;42800;53.928;27.662;2022-12-29T09:07:11;98910.47;;;1.65;100.00
56912;BME280;42800;53.928;27.662;2022-12-29T09:09:37;98907.19;;;1.86;100.00
56912;BME280;42800;53.928;27.662;2022-12-29T09:12:04;98909.91;;;1.86;100.00
56912;BME280;42800;53.928;27.662;2022-12-29T09:14:30;98915.31;;;1.86;100.00
56912;BME280;42800;53.928;27.662;2022-12-29T09:16:57;98921.38;;;1.92;100.00
56912;BME280;42800;53.928;27.662;2022-12-29T09:19:42;98929.28;;;1.79;100.00
56912;BME280;42800;53.928;27.662;2022-12-29T09:22:08;98927.19;;;1.68;100.00
56912;BME280;42800;53.928;27.662;2022-12-29T09:24:34;98927.03;;;2.21;100.00
56912;BME280;42800;53.928;27.662;2022-12-29T09:27:00;98933.44;;;1.85;100.00
56912;BME280;42800;53.928;27.662;2022-12-29T09:29:27;98920.81;;;1.72;100.00
56912;BME280;42800;53.928;27.662;2022-12-29T09:31:53;98917.88;;;1.91;100.00
56912;BME280;42800;53.928;27.662;2022-12-29T09:34:20;98915.00;;;1.87;100.00
56912;BME280;42800;53.928;27.662;2022-12-29T09:36:46;98905.25;;;1.69;100.00
56912;BME280;42800;53.928;27.662;2022-12-29T09:39:13;98902.38;;;1.65;100.00
56912;BME280;42800;53.928;27.662;2022-12-29T09:41:43;98890.66;;;1.79;100.00
56912;BME280;42800;53.928;27.662;2022-12-29T09:44:17;98894.47;;;1.78;100.00
56912;BME280;42800;53.928;27.662;2022-12-29T09:46:47;98894.31;;;1.74;100.00
56912;BME280;42800;53.928;27.662;2022-12-29T09:49:23;98897.47;;;1.76;100.00
56912;BME280;42800;53.928;27.662;2022-12-29T09:51:53;98899.72;;;1.74;100.00
56912;BME280;42800;53.928;27.662;2022-12-29T09:54:24;98887.44;;;1.68;100.00
56912;BME280;42800;53.928;27.662;2022-12-29T09:56:53;98882.50;;;1.61;100.00
56912;BME280;42800;53.928;27.662;2022-12-29T09:59:21;98865.53;;;1.78;100.00
56912;BME280;42800;53.928;27.662;2022-12-29T10:01:54;98869.47;;;1.72;100.00
56912;BME280;42800;53.928;27.662;2022-12-29T10:04:26;98855.25;;;1.98;100.00
56912;BME280;42800;53.928;27.662;2022-12-29T10:06:56;98860.13;;;1.78;100.00
56912;BME280;42800;53.928;27.662;2022-12-29T10:09:26;98847.59;;;2.00;100.00
56912;BME280;42800;53.928;27.662;2022-12-29T10:12:03;98855.84;;;1.86;100.00
56912;BME280;42800;53.928;27.662;2022-12-29T10:14:49;98848.91;;;2.11;100.00
56912;BME280;42800;53.928;27.662;2022-12-29T10:17:27;98842.84;;;2.05;100.00
56912;BME280;42800;53.928;27.662;2022-12-29T10:20:26;98849.56;;;2.17;100.00
56912;BME280;42800;53.928;27.662;2022-12-29T10:23:09;98867.00;;;1.93;100.00
56912;BME280;42800;53.928;27.662;2022-12-29T10:25:41;98861.75;;;1.88;100.00
56912;BME280;42800;53.928;27.662;2022-12-29T10:28:17;98851.13;;;2.00;100.00
56912;BME280;42800;53.928;27.662;2022-12-29T10:30:46;98858.25;;;1.87;100.00
56912;BME280;42800;53.928;27.662;2022-12-29T10:33:17;98843.97;;;2.04;100.00
56912;BME280;42800;53.928;27.662;2022-12-29T10:35:46;98848.09;;;2.19;100.00
56912;BME280;42800;53.928;27.662;2022-12-29T10:38:17;98854.66;;;2.27;100.00
56912;BME280;42800;53.928;27.662;2022-12-29T10:40:50;98869.25;;;2.08;100.00
56912;BME280;42800;53.928;27.662;2022-12-29T10:43:24;98876.22;;;1.92;100.00
56912;BME280;42800;53.928;27.662;2022-12-29T10:45:51;98876.41;;;2.13;100.00
56912;BME280;42800;53.928;27.662;2022-12-29T10:48:20;98878.19;;;2.26;100.00
56912;BME280;42800;53.928;27.662;2022-12-29T10:50:48;98903.44;;;2.13;100.00
56912;BME280;42800;53.928;27.662;2022-12-29T10:53:20;98906.50;;;2.20;100.00
56912;BME280;42800;53.928;27.662;2022-12-29T10:55:48;98910.00;;;2.29;100.00
56912;BME280;42800;53.928;27.662;2022-12-29T10:58:15;98906.22;;;2.30;100.00
56912;BME280;42800;53.928;27.662;2022-12-29T11:00:43;98907.59;;;2.19;100.00
56912;BME280;42800;53.928;27.662;2022-12-29T11:03:40;98905.19;;;2.09;100.00
56912;BME280;42800;53.928;27.662;2022-12-29T11:06:11;98909.16;;;2.03;100.00
56912;BME280;42800;53.928;27.662;2022-12-29T11:08:46;98905.38;;;2.12;100.00
56912;BME280;42800;53.928;27.662;2022-12-29T11:11:23;98885.81;;;2.33;100.00
56912;BME280;42800;53.928;27.662;2022-12-29T11:13:50;98900.84;;;1.82;100.00
56912;BME280;42800;53.928;27.662;2022-12-29T11:16:28;98882.00;;;2.17;100.00
56912;BME280;42800;53.928;27.662;2022-12-29T11:18:56;98870.84;;;2.09;100.00
56912;BME280;42800;53.928;27.662;2022-12-29T11:21:31;98861.94;;;2.26;100.00
56912;BME280;42800;53.928;27.662;2022-12-29T11:24:00;98874.47;;;1.96;100.00
56912;BME280;42800;53.928;27.662;2022-12-29T11:26:27;98865.72;;;1.91;100.00
56912;BME280;42800;53.928;27.662;2022-12-29T11:29:21;98856.00;;;1.81;100.00
56912;BME280;42800;53.928;27.662;2022-12-29T11:31:48;98840.41;;;1.86;100.00
56912;BME280;42800;53.928;27.662;2022-12-29T11:34:20;98823.94;;;1.97;100.00
56912;BME280;42800;53.928;27.662;2022-12-29T11:36:47;98815.47;;;1.81;100.00
56912;BME280;42800;53.928;27.662;2022-12-29T11:39:27;98807.16;;;1.69;100.00
56912;BME280;42800;53.928;27.662;2022-12-29T11:41:55;98802.41;;;1.74;100.00
56912;BME280;42800;53.928;27.662;2022-12-29T11:44:21;98779.53;;;1.98;100.00
56912;BME280;42800;53.928;27.662;2022-12-29T11:46:50;98774.59;;;1.82;100.00
56912;BME280;42800;53.928;27.662;2022-12-29T11:49:20;98766.63;;;1.86;100.00
56912;BME280;42800;53.928;27.662;2022-12-29T11:51:48;98756.78;;;2.16;100.00
56912;BME280;42800;53.928;27.662;2022-12-29T11:54:18;98773.97;;;2.29;100.00
56912;BME280;42800;53.928;27.662;2022-12-29T11:56:45;98800.06;;;1.99;100.00
56912;BME280;42800;53.928;27.662;2022-12-29T11:59:48;98781.28;;;2.02;100.00
56912;BME280;42800;53.928;27.662;2022-12-29T12:02:31;98777.00;;;1.84;100.00
56912;BME280;42800;53.928;27.662;2022-12-29T12:05:05;98766.16;;;1.75;100.00
56912;BME280;42800;53.928;27.662;2022-12-29T12:07:39;98759.16;;;1.83;100.00
56912;BME280;42800;53.928;27.662;2022-12-29T12:10:10;98761.22;;;1.86;100.00
56912;BME280;42800;53.928;27.662;2022-12-29T12:12:43;98762.50;;;1.88;100.00
56912;BME280;42800;53.928;27.662;2022-12-29T12:15:17;98758.72;;;2.07;100.00
56912;BME280;42800;53.928;27.662;2022-12-29T12:17:51;98769.19;;;2.08;100.00
56912;BME280;42800;53.928;27.662;2022-12-29T12:20:21;98766.78;;;1.63;100.00
56912;BME280;42800;53.928;27.662;2022-12-29T12:22:58;98743.59;;;2.06;100.00
56912;BME280;42800;53.928;27.662;2022-12-29T12:25:31;98753.75;;;1.83;100.00
56912;BME280;42800;53.928;27.662;2022-12-29T12:28:04;98746.28;;;2.06;100.00
56912;BME280;42800;53.928;27.662;2022-12-29T12:30:40;98757.91;;;2.24;100.00
56912;BME280;42800;53.928;27.662;2022-12-29T12:33:16;98758.06;;;1.93;100.00
56912;BME280;42800;53.928;27.662;2022-12-29T12:35:49;98765.06;;;1.85;100.00
56912;BME280;42800;53.928;27.662;2022-12-29T12:38:25;98743.91;;;1.78;100.00
56912;BME280;42800;53.928;27.662;2022-12-29T12:41:00;98737.69;;;1.69;100.00
56912;BME280;42800;53.928;27.662;2022-12-29T12:43:41;98734.81;;;1.65;100.00
56912;BME280;42800;53.928;27.662;2022-12-29T12:46:36;98725.47;;;1.89;100.00
56912;BME280;42800;53.928;27.662;2022-12-29T12:49:20;98730.72;;;1.94;100.00
56912;BME280;42800;53.928;27.662;2022-12-29T12:51:55;98740.25;;;2.09;100.00
56912;BME280;42800;53.928;27.662;2022-12-29T12:54:38;98751.88;;;2.18;100.00
56912;BME280;42800;53.928;27.662;2022-12-29T12:57:17;98777.47;;;2.21;100.00
56912;BME280;42800;53.928;27.662;2022-12-29T12:59:52;98795.28;;;2.22;100.00
56912;BME280;42800;53.928;27.662;2022-12-29T13:02:39;98808.50;;;2.15;100.00
56912;BME280;42800;53.928;27.662;2022-12-29T13:05:24;98815.50;;;2.16;100.00
56912;BME280;42800;53.928;27.662;2022-12-29T13:08:03;98819.00;;;2.16;100.00
56912;BME280;42800;53.928;27.662;2022-12-29T13:10:42;98829.34;;;2.23;100.00
56912;BME280;42800;53.928;27.662;2022-12-29T13:13:43;98839.69;;;2.29;100.00